Aérodrome :
LOGIN :

S'inscrire | Disclaimer

   EN    FR    IT 

 










Légende :    VFR   VFR Marginal   IFR   IFR Intensif   IFR Très Intensif
Visi : 
Plafond : 
>= 8 km
>= 3000ft
5 à 8 km
1000 à 3000 ft
1500m à 5 km
500 à 1000 ft
800 à 1500m
200 à 500 ft
< 800m
< 200 ft
Symboles :   Orages  Brouillard  Fortes neiges  Fortes précipitations  Vent > 20 kt
SIGMETs :   Divers  Orages  Givrage  Turbulence  Onde Orograph.  Cendres Volcan.






- Altitude de l'aérodrome : 610 ft
- Code IATA : VXO


ESMX - Växjö Kronoberg

DERNIER METAR :
  • 110250Z AUTO 16015KT 9999 -DZ FEW028/// OVC042/// 04/M00 Q1006 RESHUP REUP

METARs EXPIRÉS :
  • 110220Z AUTO 16016KT 9999 OVC048/// 04/M00 Q1007
  • 110150Z AUTO 16015KT 9999 SCT035/// OVC053/// 03/M00 Q1007
  • 110120Z AUTO 17017KT 9999 SCT062/// BKN100/// 03/M00 Q1008
  • 110050Z AUTO 17016G27KT 9999 BKN100/// 03/00 Q1009
  • 110020Z AUTO 17016KT 9999 OVC110/// 03/00 Q1009

Prévision TAF périmée.



MET'MAP, la Météo Aéronautique d'un coup d'oeil ! - Copyright ORBIFLY Décembre 2007 - Disclaimer

ORBIFLY MET'MAP TEAM :

Programmation & Développement : Alexandra Zaïnal
Sur une idée originale de : Baudouin d'Aumeries
Assistance à la programmation : Marc-Olivier Méhu
Soutien technique & logistique : Manuel Goepfert

Contact : metmap@orbifly.com




SOURCES & CREDITS :

   NOAA